Atlantica — WDF3913 — position and weather

sailwx.info

Track history (hours):
 
Tides and Currents Weather Stations Pressure Air Temp Water Temp Dewpoint Dewpoint Depression Visibility Wind Speed Wind Dir Waves Ship Positions

Atlantica

Owner: Spirit Cruises LLC, New York, NY. More information available from US FCC via Universal Licensing System and Coast Guard Vessel Documentation Center.

Last reported at 2017-Oct-22 02:41 UTC. Time now 2017-Oct-22 05:01 UTC.
Position N 40°45' W 074°01'.

Length 45 m; draft 3.5 m.

Type: Passenger vessel. MMSI: 367445550.

Date/timePositionNaut miles runAvg speedWind from/ knotsBaromVisibWave heightAir tempDewpointWater temp
2017-Oct-22 02:41N 40°45' W 074°01'1 2.8
2017-Oct-22 02:31N 40°45' W 074°01'0 0.5
2017-Oct-22 02:00N 40°46' W 074°01'2 5.1
2017-Oct-22 01:31N 40°43' W 074°02'1 2.7
2017-Oct-22 01:01N 40°42' W 074°01'2 4.6
2017-Oct-22 00:30N 40°43' W 073°59'2 4.2
2017-Oct-22 00:01N 40°42' W 074°01'3 5.9
2017-Oct-21 23:31N 40°45' W 074°01'1 1.3
2017-Oct-21 23:00N 40°46' W 074°01'0 0.0
2017-Oct-21 22:30N 40°46' W 074°01'0 0.1
2017-Oct-21 22:00N 40°46' W 074°01'1 1.5
2017-Oct-21 21:30N 40°45' W 074°01'0 0.0
2017-Oct-20 01:57N 40°45' W 074°01'2 5.1
2017-Oct-20 01:30N 40°43' W 074°01'1 1.7
2017-Oct-20 01:00N 40°42' W 074°01'3 5.3
2017-Oct-20 00:30N 40°43' W 073°58'2 4.5
2017-Oct-20 00:00N 40°42' W 074°01'3 5.7
2017-Oct-19 23:30N 40°45' W 074°01'0 0.3
2017-Oct-19 23:00N 40°45' W 074°01'0 0.0
2017-Oct-19 22:30N 40°45' W 074°01'  
2017-Oct-16 13:53N 40°45' W 074°01'1 1.4
2017-Oct-16 13:30N 40°44' W 074°01'2 4.0
2017-Oct-16 13:00N 40°42' W 074°01'1 3.0
2017-Oct-16 12:30N 40°41' W 074°02'3 6.8
2017-Oct-16 12:00N 40°44' W 074°01'1 1.0
2017-Oct-16 11:30N 40°45' W 074°01'0 0.0
2017-Oct-16 11:00N 40°45' W 074°01'0 0.0
2017-Oct-16 01:57N 40°45' W 074°01'1 2.7
2017-Oct-16 01:31N 40°44' W 074°01'3 5.3
2017-Oct-16 01:01N 40°41' W 074°02'3 5.5
2017-Oct-16 00:30N 40°42' W 073°59'2 3.7
2017-Oct-16 00:01N 40°43' W 074°01'3 5.8
2017-Oct-15 23:31N 40°46' W 074°01'1 1.6
2017-Oct-15 23:00N 40°45' W 074°01'0 0.0
2017-Oct-15 22:30N 40°45' W 074°01'0 0.0
2017-Oct-15 22:00N 40°45' W 074°01'  
Track history (hours):
 
Tides and Currents Weather Stations Pressure Air Temp Water Temp Dewpoint Dewpoint Depression Visibility Wind Speed Wind Dir Waves Ship Positions

Atlantica

Owner: Spirit Cruises LLC, New York, NY. More information available from US FCC via Universal Licensing System and Coast Guard Vessel Documentation Center.

Last reported at 2017-Oct-22 02:41 UTC. Time now 2017-Oct-22 05:01 UTC.
Position N 40°45' W 074°01'.

Length 45 m; draft 3.5 m.

Type: Passenger vessel. MMSI: 367445550.

Date/timePositionNaut miles runAvg speedWind from/ knotsBaromVisibWave heightAir tempDewpointWater temp
2017-Oct-22 02:41N 40°45' W 074°01'1 2.8
2017-Oct-22 02:31N 40°45' W 074°01'0 0.5
2017-Oct-22 02:00N 40°46' W 074°01'2 5.1
2017-Oct-22 01:31N 40°43' W 074°02'1 2.7
2017-Oct-22 01:01N 40°42' W 074°01'2 4.6
2017-Oct-22 00:30N 40°43' W 073°59'2 4.2
2017-Oct-22 00:01N 40°42' W 074°01'3 5.9
2017-Oct-21 23:31N 40°45' W 074°01'1 1.3
2017-Oct-21 23:00N 40°46' W 074°01'0 0.0
2017-Oct-21 22:30N 40°46' W 074°01'0 0.1
2017-Oct-21 22:00N 40°46' W 074°01'1 1.5
2017-Oct-21 21:30N 40°45' W 074°01'0 0.0
2017-Oct-20 01:57N 40°45' W 074°01'2 5.1
2017-Oct-20 01:30N 40°43' W 074°01'1 1.7
2017-Oct-20 01:00N 40°42' W 074°01'3 5.3
2017-Oct-20 00:30N 40°43' W 073°58'2 4.5
2017-Oct-20 00:00N 40°42' W 074°01'3 5.7
2017-Oct-19 23:30N 40°45' W 074°01'0 0.3
2017-Oct-19 23:00N 40°45' W 074°01'0 0.0
2017-Oct-19 22:30N 40°45' W 074°01'  
2017-Oct-16 13:53N 40°45' W 074°01'1 1.4
2017-Oct-16 13:30N 40°44' W 074°01'2 4.0
2017-Oct-16 13:00N 40°42' W 074°01'1 3.0
2017-Oct-16 12:30N 40°41' W 074°02'3 6.8
2017-Oct-16 12:00N 40°44' W 074°01'1 1.0
2017-Oct-16 11:30N 40°45' W 074°01'0 0.0
2017-Oct-16 11:00N 40°45' W 074°01'0 0.0
2017-Oct-16 01:57N 40°45' W 074°01'1 2.7
2017-Oct-16 01:31N 40°44' W 074°01'3 5.3
2017-Oct-16 01:01N 40°41' W 074°02'3 5.5
2017-Oct-16 00:30N 40°42' W 073°59'2 3.7
2017-Oct-16 00:01N 40°43' W 074°01'3 5.8
2017-Oct-15 23:31N 40°46' W 074°01'1 1.6
2017-Oct-15 23:00N 40°45' W 074°01'0 0.0
2017-Oct-15 22:30N 40°45' W 074°01'0 0.0
2017-Oct-15 22:00N 40°45' W 074°01'  

Dump ship's entire track history